sensor_id;sensor_type;location;lat;lon;timestamp;pressure;altitude;pressure_sealevel;temperature;humidity
68654;BME280;55636;51.108;13.622;2023-05-17T00:00:53;100685.78;;;7.27;50.73
68654;BME280;55636;51.108;13.622;2023-05-17T00:01:55;100680.53;;;7.26;50.74
68654;BME280;55636;51.108;13.622;2023-05-17T00:02:58;100671.41;;;7.25;50.82
68654;BME280;55636;51.108;13.622;2023-05-17T00:04:00;100675.47;;;7.22;51.03
68654;BME280;55636;51.108;13.622;2023-05-17T00:05:03;100674.88;;;7.20;50.91
68654;BME280;55636;51.108;13.622;2023-05-17T00:06:05;100679.50;;;7.20;50.87
68654;BME280;55636;51.108;13.622;2023-05-17T00:07:08;100671.50;;;7.18;50.94
68654;BME280;55636;51.108;13.622;2023-05-17T00:08:10;100683.56;;;7.17;50.93
68654;BME280;55636;51.108;13.622;2023-05-17T00:09:13;100675.75;;;7.14;51.12
68654;BME280;55636;51.108;13.622;2023-05-17T00:10:15;100672.16;;;7.14;51.03
68654;BME280;55636;51.108;13.622;2023-05-17T00:11:18;100685.28;;;7.12;51.20
68654;BME280;55636;51.108;13.622;2023-05-17T00:12:20;100680.88;;;7.11;51.30
68654;BME280;55636;51.108;13.622;2023-05-17T00:13:22;100680.03;;;7.10;51.20
68654;BME280;55636;51.108;13.622;2023-05-17T00:14:25;100683.03;;;7.09;51.19
68654;BME280;55636;51.108;13.622;2023-05-17T00:15:27;100682.16;;;7.08;51.31
68654;BME280;55636;51.108;13.622;2023-05-17T00:16:30;100682.63;;;7.05;51.32
68654;BME280;55636;51.108;13.622;2023-05-17T00:17:32;100683.47;;;7.05;51.50
68654;BME280;55636;51.108;13.622;2023-05-17T00:18:35;100680.94;;;7.04;51.46
68654;BME280;55636;51.108;13.622;2023-05-17T00:19:37;100680.31;;;7.02;51.51
68654;BME280;55636;51.108;13.622;2023-05-17T00:20:39;100688.78;;;7.00;51.48
68654;BME280;55636;51.108;13.622;2023-05-17T00:21:42;100680.78;;;6.99;51.45
68654;BME280;55636;51.108;13.622;2023-05-17T00:22:45;100682.91;;;6.97;51.41
68654;BME280;55636;51.108;13.622;2023-05-17T00:23:48;100688.41;;;6.97;51.55
68654;BME280;55636;51.108;13.622;2023-05-17T00:24:50;100692.44;;;6.94;51.57
68654;BME280;55636;51.108;13.622;2023-05-17T00:25:53;100681.69;;;6.93;51.71
68654;BME280;55636;51.108;13.622;2023-05-17T00:26:55;100681.09;;;6.90;51.77
68654;BME280;55636;51.108;13.622;2023-05-17T00:27:57;100684.91;;;6.89;51.72
68654;BME280;55636;51.108;13.622;2023-05-17T00:29:02;100681.34;;;6.89;51.87
68654;BME280;55636;51.108;13.622;2023-05-17T00:30:05;100683.47;;;6.87;51.75
68654;BME280;55636;51.108;13.622;2023-05-17T00:31:11;100680.94;;;6.85;51.72
68654;BME280;55636;51.108;13.622;2023-05-17T00:32:13;100684.75;;;6.84;51.70
68654;BME280;55636;51.108;13.622;2023-05-17T00:33:15;100680.56;;;6.82;51.90
68654;BME280;55636;51.108;13.622;2023-05-17T00:34:18;100685.22;;;6.81;51.85
68654;BME280;55636;51.108;13.622;2023-05-17T00:35:20;100689.03;;;6.80;51.88
68654;BME280;55636;51.108;13.622;2023-05-17T00:36:23;100684.84;;;6.78;51.90
68654;BME280;55636;51.108;13.622;2023-05-17T00:37:25;100692.44;;;6.76;52.03
68654;BME280;55636;51.108;13.622;2023-05-17T00:38:28;100691.84;;;6.73;52.20
68654;BME280;55636;51.108;13.622;2023-05-17T00:39:30;100689.09;;;6.73;52.17
68654;BME280;55636;51.108;13.622;2023-05-17T00:40:33;100699.22;;;6.73;52.20
68654;BME280;55636;51.108;13.622;2023-05-17T00:41:35;100697.78;;;6.70;52.19
68654;BME280;55636;51.108;13.622;2023-05-17T00:42:37;100689.78;;;6.69;52.24
68654;BME280;55636;51.108;13.622;2023-05-17T00:43:40;100702.91;;;6.67;52.38
68654;BME280;55636;51.108;13.622;2023-05-17T00:44:43;100695.72;;;6.66;52.21
68654;BME280;55636;51.108;13.622;2023-05-17T00:45:46;100693.66;;;6.61;52.24
68654;BME280;55636;51.108;13.622;2023-05-17T00:46:50;100692.81;;;6.61;52.30
68654;BME280;55636;51.108;13.622;2023-05-17T00:47:52;100690.31;;;6.59;52.47
68654;BME280;55636;51.108;13.622;2023-05-17T00:48:55;100691.34;;;6.58;52.57
68654;BME280;55636;51.108;13.622;2023-05-17T00:49:57;100690.72;;;6.56;52.45
68654;BME280;55636;51.108;13.622;2023-05-17T00:51:00;100696.44;;;6.54;52.55
68654;BME280;55636;51.108;13.622;2023-05-17T00:52:03;100697.50;;;6.53;52.45
68654;BME280;55636;51.108;13.622;2023-05-17T00:53:05;100697.75;;;6.52;52.55
68654;BME280;55636;51.108;13.622;2023-05-17T00:54:08;100698.81;;;6.51;52.85
68654;BME280;55636;51.108;13.622;2023-05-17T00:55:10;100701.78;;;6.49;52.87
68654;BME280;55636;51.108;13.622;2023-05-17T00:56:13;100694.59;;;6.48;53.03
68654;BME280;55636;51.108;13.622;2023-05-17T00:57:15;100699.25;;;6.48;52.88
68654;BME280;55636;51.108;13.622;2023-05-17T00:58:18;100702.25;;;6.46;52.91
68654;BME280;55636;51.108;13.622;2023-05-17T00:59:21;100690.41;;;6.46;52.87
68654;BME280;55636;51.108;13.622;2023-05-17T01:00:24;100691.69;;;6.43;52.85
68654;BME280;55636;51.108;13.622;2023-05-17T01:01:26;100691.09;;;6.41;52.93
68654;BME280;55636;51.108;13.622;2023-05-17T01:02:29;100694.66;;;6.42;53.02
68654;BME280;55636;51.108;13.622;2023-05-17T01:03:31;100700.38;;;6.40;52.83
68654;BME280;55636;51.108;13.622;2023-05-17T01:04:35;100695.13;;;6.38;52.79
68654;BME280;55636;51.108;13.622;2023-05-17T01:05:37;100696.19;;;6.37;53.03
68654;BME280;55636;51.108;13.622;2023-05-17T01:06:40;100697.25;;;6.36;53.15
68654;BME280;55636;51.108;13.622;2023-05-17T01:07:42;100693.66;;;6.36;53.07
68654;BME280;55636;51.108;13.622;2023-05-17T01:08:45;100702.13;;;6.34;52.94
68654;BME280;55636;51.108;13.622;2023-05-17T01:09:47;100694.97;;;6.33;53.09
68654;BME280;55636;51.108;13.622;2023-05-17T01:11:34;100697.94;;;6.32;53.07
68654;BME280;55636;51.108;13.622;2023-05-17T01:12:49;100695.38;;;6.30;53.21
68654;BME280;55636;51.108;13.622;2023-05-17T01:14:06;100697.31;;;6.30;53.23
68654;BME280;55636;51.108;13.622;2023-05-17T01:15:14;100698.34;;;6.29;53.12
68654;BME280;55636;51.108;13.622;2023-05-17T01:20:36;100704.53;;;6.24;53.09
68654;BME280;55636;51.108;13.622;2023-05-17T01:22:59;100704.72;;;6.22;53.22
68654;BME280;55636;51.108;13.622;2023-05-17T01:24:27;100709.00;;;6.18;53.16
68654;BME280;55636;51.108;13.622;2023-05-17T01:26:53;100703.72;;;6.17;53.19
68654;BME280;55636;51.108;13.622;2023-05-17T01:28:00;100704.78;;;6.16;53.32
68654;BME280;55636;51.108;13.622;2023-05-17T01:29:04;100703.97;;;6.15;53.23
68654;BME280;55636;51.108;13.622;2023-05-17T01:30:09;100706.06;;;6.13;53.43
68654;BME280;55636;51.108;13.622;2023-05-17T01:31:13;100714.31;;;6.13;53.40
68654;BME280;55636;51.108;13.622;2023-05-17T01:32:16;100703.56;;;6.12;53.61
68654;BME280;55636;51.108;13.622;2023-05-17T01:33:19;100704.41;;;6.12;53.50
68654;BME280;55636;51.108;13.622;2023-05-17T01:34:28;100710.97;;;6.11;53.55
68654;BME280;55636;51.108;13.622;2023-05-17T01:35:31;100713.69;;;6.11;53.43
68654;BME280;55636;51.108;13.622;2023-05-17T01:36:33;100719.41;;;6.10;53.71
68654;BME280;55636;51.108;13.622;2023-05-17T01:37:37;100709.50;;;6.09;53.47
68654;BME280;55636;51.108;13.622;2023-05-17T01:38:43;100714.13;;;6.08;53.49
68654;BME280;55636;51.108;13.622;2023-05-17T01:39:45;100718.56;;;6.09;53.60
68654;BME280;55636;51.108;13.622;2023-05-17T01:41:16;100721.53;;;6.07;53.63
68654;BME280;55636;51.108;13.622;2023-05-17T01:42:28;100726.19;;;6.07;53.73
68654;BME280;55636;51.108;13.622;2023-05-17T01:43:47;100723.63;;;6.05;53.74
68654;BME280;55636;51.108;13.622;2023-05-17T01:46:23;100729.34;;;6.04;53.61
68654;BME280;55636;51.108;13.622;2023-05-17T01:47:42;100721.34;;;6.02;53.79
68654;BME280;55636;51.108;13.622;2023-05-17T01:48:53;100728.75;;;6.02;53.87
68654;BME280;55636;51.108;13.622;2023-05-17T01:49:59;100725.78;;;6.03;53.85
68654;BME280;55636;51.108;13.622;2023-05-17T01:51:02;100723.25;;;6.02;53.99
68654;BME280;55636;51.108;13.622;2023-05-17T01:52:12;100723.47;;;6.00;53.96
68654;BME280;55636;51.108;13.622;2023-05-17T01:53:47;100724.53;;;5.99;53.80
68654;BME280;55636;51.108;13.622;2023-05-17T01:55:08;100721.16;;;5.97;54.01
68654;BME280;55636;51.108;13.622;2023-05-17T01:56:23;100729.41;;;5.97;53.95
68654;BME280;55636;51.108;13.622;2023-05-17T01:57:31;100735.13;;;5.96;53.75
68654;BME280;55636;51.108;13.622;2023-05-17T01:58:45;100734.28;;;5.95;53.77
68654;BME280;55636;51.108;13.622;2023-05-17T01:59:50;100727.13;;;5.94;53.79
68654;BME280;55636;51.108;13.622;2023-05-17T02:00:55;100731.72;;;5.94;53.85
68654;BME280;55636;51.108;13.622;2023-05-17T02:01:59;100734.72;;;5.92;53.79
68654;BME280;55636;51.108;13.622;2023-05-17T02:03:11;100744.84;;;5.92;53.97
68654;BME280;55636;51.108;13.622;2023-05-17T02:04:13;100737.69;;;5.90;53.99
68654;BME280;55636;51.108;13.622;2023-05-17T02:09:15;100741.91;;;5.86;54.06
68654;BME280;55636;51.108;13.622;2023-05-17T02:10:18;100742.97;;;5.85;54.03
68654;BME280;55636;51.108;13.622;2023-05-17T02:11:20;100742.16;;;5.85;54.06
68654;BME280;55636;51.108;13.622;2023-05-17T02:12:22;100743.19;;;5.84;54.22
68654;BME280;55636;51.108;13.622;2023-05-17T02:13:26;100742.34;;;5.83;54.32
68654;BME280;55636;51.108;13.622;2023-05-17T02:14:29;100747.81;;;5.83;54.35
68654;BME280;55636;51.108;13.622;2023-05-17T02:15:31;100741.75;;;5.81;54.21
68654;BME280;55636;51.108;13.622;2023-05-17T02:16:33;100746.38;;;5.81;54.12
68654;BME280;55636;51.108;13.622;2023-05-17T02:17:37;100748.28;;;5.80;54.23
68654;BME280;55636;51.108;13.622;2023-05-17T02:18:40;100742.78;;;5.80;54.31
68654;BME280;55636;51.108;13.622;2023-05-17T02:19:43;100748.28;;;5.80;54.30
68654;BME280;55636;51.108;13.622;2023-05-17T02:20:46;100741.75;;;5.81;54.20
68654;BME280;55636;51.108;13.622;2023-05-17T02:21:48;100734.56;;;5.80;54.19
68654;BME280;55636;51.108;13.622;2023-05-17T02:22:50;100732.88;;;5.79;54.28
68654;BME280;55636;51.108;13.622;2023-05-17T02:23:53;100734.56;;;5.80;54.17
68654;BME280;55636;51.108;13.622;2023-05-17T02:24:55;100734.78;;;5.79;54.29
68654;BME280;55636;51.108;13.622;2023-05-17T02:25:57;100732.88;;;5.79;54.28
68654;BME280;55636;51.108;13.622;2023-05-17T02:27:01;100732.06;;;5.79;54.36
68654;BME280;55636;51.108;13.622;2023-05-17T02:28:05;100725.72;;;5.78;54.37
68654;BME280;55636;51.108;13.622;2023-05-17T02:29:09;100733.09;;;5.78;54.42
68654;BME280;55636;51.108;13.622;2023-05-17T02:30:12;100726.78;;;5.77;54.33
68654;BME280;55636;51.108;13.622;2023-05-17T02:31:18;100738.38;;;5.79;54.36
68654;BME280;55636;51.108;13.622;2023-05-17T02:32:23;100734.78;;;5.79;54.35
68654;BME280;55636;51.108;13.622;2023-05-17T02:33:25;100733.09;;;5.78;54.53
68654;BME280;55636;51.108;13.622;2023-05-17T02:34:30;100733.09;;;5.78;54.43
68654;BME280;55636;51.108;13.622;2023-05-17T02:35:34;100733.09;;;5.78;54.55
68654;BME280;55636;51.108;13.622;2023-05-17T02:36:36;100738.59;;;5.78;54.57
68654;BME280;55636;51.108;13.622;2023-05-17T02:37:39;100740.50;;;5.77;54.57
68654;BME280;55636;51.108;13.622;2023-05-17T02:38:41;100743.25;;;5.77;54.60
68654;BME280;55636;51.108;13.622;2023-05-17T02:39:43;100745.13;;;5.77;54.68
68654;BME280;55636;51.108;13.622;2023-05-17T02:40:46;100740.69;;;5.76;54.72
68654;BME280;55636;51.108;13.622;2023-05-17T02:41:48;100746.19;;;5.76;54.70
68654;BME280;55636;51.108;13.622;2023-05-17T02:42:50;100746.19;;;5.76;54.79
68654;BME280;55636;51.108;13.622;2023-05-17T02:43:53;100747.25;;;5.74;54.73
68654;BME280;55636;51.108;13.622;2023-05-17T02:44:55;100746.41;;;5.74;55.03
68654;BME280;55636;51.108;13.622;2023-05-17T02:45:59;100751.88;;;5.74;54.92
68654;BME280;55636;51.108;13.622;2023-05-17T02:47:01;100751.88;;;5.74;54.93
68654;BME280;55636;51.108;13.622;2023-05-17T02:48:04;100757.38;;;5.74;54.85
68654;BME280;55636;51.108;13.622;2023-05-17T02:49:07;100751.28;;;5.72;54.95
68654;BME280;55636;51.108;13.622;2023-05-17T02:50:09;100756.75;;;5.72;55.06
68654;BME280;55636;51.108;13.622;2023-05-17T02:51:12;100761.38;;;5.71;54.97
68654;BME280;55636;51.108;13.622;2023-05-17T02:52:14;100761.38;;;5.71;55.03
68654;BME280;55636;51.108;13.622;2023-05-17T02:53:18;100765.00;;;5.72;55.20
68654;BME280;55636;51.108;13.622;2023-05-17T02:54:20;100769.59;;;5.71;55.27
68654;BME280;55636;51.108;13.622;2023-05-17T02:55:23;100763.53;;;5.69;55.17
68654;BME280;55636;51.108;13.622;2023-05-17T02:56:25;100767.09;;;5.70;55.16
68654;BME280;55636;51.108;13.622;2023-05-17T02:57:28;100762.66;;;5.69;55.17
68654;BME280;55636;51.108;13.622;2023-05-17T02:58:30;100766.25;;;5.69;55.17
68654;BME280;55636;51.108;13.622;2023-05-17T02:59:32;100771.75;;;5.69;55.30
68654;BME280;55636;51.108;13.622;2023-05-17T03:00:35;100771.97;;;5.68;55.19
68654;BME280;55636;51.108;13.622;2023-05-17T03:01:37;100773.84;;;5.67;55.23
68654;BME280;55636;51.108;13.622;2023-05-17T03:02:39;100763.13;;;5.66;55.32
68654;BME280;55636;51.108;13.622;2023-05-17T03:03:42;100768.59;;;5.66;55.36
68654;BME280;55636;51.108;13.622;2023-05-17T03:04:45;100762.88;;;5.67;55.39
68654;BME280;55636;51.108;13.622;2023-05-17T03:05:47;100767.53;;;5.67;55.53
68654;BME280;55636;51.108;13.622;2023-05-17T03:06:50;100769.41;;;5.66;55.56
68654;BME280;55636;51.108;13.622;2023-05-17T03:07:52;100774.06;;;5.66;55.53
68654;BME280;55636;51.108;13.622;2023-05-17T03:08:55;100776.00;;;5.65;55.63
68654;BME280;55636;51.108;13.622;2023-05-17T03:09:57;100778.72;;;5.65;55.61
68654;BME280;55636;51.108;13.622;2023-05-17T03:11:03;100777.88;;;5.65;55.64
68654;BME280;55636;51.108;13.622;2023-05-17T03:12:06;100782.75;;;5.63;55.80
68654;BME280;55636;51.108;13.622;2023-05-17T03:13:09;100791.81;;;5.63;55.67
68654;BME280;55636;51.108;13.622;2023-05-17T03:14:13;100784.63;;;5.62;55.73
68654;BME280;55636;51.108;13.622;2023-05-17T03:15:15;100789.28;;;5.62;55.79
68654;BME280;55636;51.108;13.622;2023-05-17T03:16:19;100782.94;;;5.61;55.82
68654;BME280;55636;51.108;13.622;2023-05-17T03:17:23;100790.09;;;5.62;55.64
68654;BME280;55636;51.108;13.622;2023-05-17T03:18:27;100795.81;;;5.61;55.81
68654;BME280;55636;51.108;13.622;2023-05-17T03:19:29;100785.91;;;5.60;55.79
68654;BME280;55636;51.108;13.622;2023-05-17T03:20:32;100787.81;;;5.59;55.90
68654;BME280;55636;51.108;13.622;2023-05-17T03:21:34;100796.03;;;5.59;55.92
68654;BME280;55636;51.108;13.622;2023-05-17T03:22:37;100790.56;;;5.59;55.85
68654;BME280;55636;51.108;13.622;2023-05-17T03:23:40;100796.25;;;5.57;55.90
68654;BME280;55636;51.108;13.622;2023-05-17T03:24:42;100791.81;;;5.56;55.85
68654;BME280;55636;51.108;13.622;2023-05-17T03:25:44;100792.66;;;5.57;56.04
68654;BME280;55636;51.108;13.622;2023-05-17T03:26:47;100793.72;;;5.56;55.93
68654;BME280;55636;51.108;13.622;2023-05-17T03:27:49;100791.19;;;5.54;56.06
68654;BME280;55636;51.108;13.622;2023-05-17T03:28:52;100798.38;;;5.55;56.09
68654;BME280;55636;51.108;13.622;2023-05-17T03:29:54;100792.88;;;5.55;56.16
68654;BME280;55636;51.108;13.622;2023-05-17T03:30:59;100802.16;;;5.54;56.17
68654;BME280;55636;51.108;13.622;2023-05-17T03:32:05;100805.13;;;5.53;56.13
68654;BME280;55636;51.108;13.622;2023-05-17T03:33:07;100809.53;;;5.54;56.14
68654;BME280;55636;51.108;13.622;2023-05-17T03:34:10;100801.53;;;5.52;56.30
68654;BME280;55636;51.108;13.622;2023-05-17T03:35:13;100802.59;;;5.51;56.26
68654;BME280;55636;51.108;13.622;2023-05-17T03:36:19;100802.59;;;5.51;56.26
68654;BME280;55636;51.108;13.622;2023-05-17T03:37:21;100802.59;;;5.51;56.39
68654;BME280;55636;51.108;13.622;2023-05-17T03:38:23;100807.25;;;5.51;56.68
68654;BME280;55636;51.108;13.622;2023-05-17T03:39:26;100804.50;;;5.51;56.54
68654;BME280;55636;51.108;13.622;2023-05-17T03:40:28;100800.09;;;5.50;56.53
68654;BME280;55636;51.108;13.622;2023-05-17T03:41:32;100807.44;;;5.49;56.50
68654;BME280;55636;51.108;13.622;2023-05-17T03:42:35;100803.88;;;5.49;56.50
68654;BME280;55636;51.108;13.622;2023-05-17T03:43:38;100805.78;;;5.48;56.61
68654;BME280;55636;51.108;13.622;2023-05-17T03:44:43;100811.25;;;5.48;56.63
68654;BME280;55636;51.108;13.622;2023-05-17T03:45:45;100809.56;;;5.47;56.60
68654;BME280;55636;51.108;13.622;2023-05-17T03:46:51;100814.19;;;5.47;56.74
68654;BME280;55636;51.108;13.622;2023-05-17T03:47:55;100812.31;;;5.47;56.65
68654;BME280;55636;51.108;13.622;2023-05-17T03:48:58;100814.19;;;5.47;56.70
68654;BME280;55636;51.108;13.622;2023-05-17T03:50:00;100815.28;;;5.46;56.82
68654;BME280;55636;51.108;13.622;2023-05-17T03:51:04;100818.84;;;5.46;56.79
68654;BME280;55636;51.108;13.622;2023-05-17T03:52:07;100813.38;;;5.46;56.71
68654;BME280;55636;51.108;13.622;2023-05-17T03:53:10;100821.81;;;5.45;56.89
68654;BME280;55636;51.108;13.622;2023-05-17T03:54:12;100825.38;;;5.45;56.92
68654;BME280;55636;51.108;13.622;2023-05-17T03:55:15;100828.13;;;5.45;57.10
68654;BME280;55636;51.108;13.622;2023-05-17T03:56:17;100828.13;;;5.45;57.12
68654;BME280;55636;51.108;13.622;2023-05-17T03:57:22;100826.44;;;5.44;57.19
68654;BME280;55636;51.108;13.622;2023-05-17T03:58:24;100831.50;;;5.47;57.16
68654;BME280;55636;51.108;13.622;2023-05-17T03:59:27;100830.03;;;5.45;57.18
68654;BME280;55636;51.108;13.622;2023-05-17T04:00:29;100832.53;;;5.46;57.08
68654;BME280;55636;51.108;13.622;2023-05-17T04:01:36;100836.13;;;5.47;57.05
68654;BME280;55636;51.108;13.622;2023-05-17T04:02:38;100836.13;;;5.47;57.06
68654;BME280;55636;51.108;13.622;2023-05-17T04:03:41;100836.97;;;5.47;57.17
68654;BME280;55636;51.108;13.622;2023-05-17T04:04:48;100842.25;;;5.49;57.21
68654;BME280;55636;51.108;13.622;2023-05-17T04:05:52;100830.63;;;5.47;57.18
68654;BME280;55636;51.108;13.622;2023-05-17T04:06:54;100838.66;;;5.48;57.18
68654;BME280;55636;51.108;13.622;2023-05-17T04:07:58;100837.59;;;5.49;57.30
68654;BME280;55636;51.108;13.622;2023-05-17T04:09:01;100838.44;;;5.50;57.21
68654;BME280;55636;51.108;13.622;2023-05-17T04:10:03;100834.84;;;5.49;57.27
68654;BME280;55636;51.108;13.622;2023-05-17T04:11:07;100836.53;;;5.50;57.27
68654;BME280;55636;51.108;13.622;2023-05-17T04:12:15;100842.00;;;5.50;57.53
68654;BME280;55636;51.108;13.622;2023-05-17T04:13:18;100842.88;;;5.51;57.61
68654;BME280;55636;51.108;13.622;2023-05-17T04:14:20;100841.78;;;5.52;57.55
68654;BME280;55636;51.108;13.622;2023-05-17T04:15:23;100841.56;;;5.53;57.50
68654;BME280;55636;51.108;13.622;2023-05-17T04:16:26;100834.22;;;5.54;57.59
68654;BME280;55636;51.108;13.622;2023-05-17T04:17:29;100834.00;;;5.55;57.58
68654;BME280;55636;51.108;13.622;2023-05-17T04:18:35;100834.63;;;5.57;57.53
68654;BME280;55636;51.108;13.622;2023-05-17T04:19:38;100833.56;;;5.58;57.67
68654;BME280;55636;51.108;13.622;2023-05-17T04:20:41;100840.72;;;5.60;57.76
68654;BME280;55636;51.108;13.622;2023-05-17T04:21:44;100832.09;;;5.63;57.68
68654;BME280;55636;51.108;13.622;2023-05-17T04:22:47;100837.34;;;5.64;57.70
68654;BME280;55636;51.108;13.622;2023-05-17T04:23:50;100837.13;;;5.66;57.71
68654;BME280;55636;51.108;13.622;2023-05-17T04:24:52;100845.13;;;5.67;57.72
68654;BME280;55636;51.108;13.622;2023-05-17T04:25:54;100844.91;;;5.69;57.81
68654;BME280;55636;51.108;13.622;2023-05-17T04:26:59;100830.16;;;5.70;57.71
68654;BME280;55636;51.108;13.622;2023-05-17T04:28:04;100840.69;;;5.73;57.71
68654;BME280;55636;51.108;13.622;2023-05-17T04:29:07;100839.63;;;5.74;57.69
68654;BME280;55636;51.108;13.622;2023-05-17T04:30:09;100841.31;;;5.75;57.71
68654;BME280;55636;51.108;13.622;2023-05-17T04:31:14;100840.84;;;5.78;57.74
68654;BME280;55636;51.108;13.622;2023-05-17T04:32:18;100836.84;;;5.81;57.89
68654;BME280;55636;51.108;13.622;2023-05-17T04:33:22;100836.66;;;5.82;57.83
68654;BME280;55636;51.108;13.622;2023-05-17T04:34:25;100840.84;;;5.85;57.84
68654;BME280;55636;51.108;13.622;2023-05-17T04:35:30;100839.59;;;5.87;57.86
68654;BME280;55636;51.108;13.622;2023-05-17T04:36:33;100834.69;;;5.89;57.85
68654;BME280;55636;51.108;13.622;2023-05-17T04:37:37;100842.50;;;5.93;57.83
68654;BME280;55636;51.108;13.622;2023-05-17T04:38:51;100840.38;;;5.95;57.74
68654;BME280;55636;51.108;13.622;2023-05-17T04:39:58;100835.31;;;5.98;57.94
68654;BME280;55636;51.108;13.622;2023-05-17T04:41:02;100843.94;;;6.02;57.93
68654;BME280;55636;51.108;13.622;2023-05-17T04:42:07;100840.75;;;6.05;57.92
68654;BME280;55636;51.108;13.622;2023-05-17T04:43:17;100842.84;;;6.10;57.93
68654;BME280;55636;51.108;13.622;2023-05-17T04:44:20;100842.19;;;6.14;58.06
68654;BME280;55636;51.108;13.622;2023-05-17T04:45:23;100838.78;;;6.19;58.06
68654;BME280;55636;51.108;13.622;2023-05-17T04:46:26;100847.22;;;6.24;57.96
68654;BME280;55636;51.108;13.622;2023-05-17T04:47:28;100847.16;;;6.31;57.92
68654;BME280;55636;51.108;13.622;2023-05-17T04:48:31;100848.41;;;6.35;57.96
68654;BME280;55636;51.108;13.622;2023-05-17T04:49:34;100845.84;;;6.40;57.82
68654;BME280;55636;51.108;13.622;2023-05-17T04:50:37;100847.72;;;6.46;57.93
68654;BME280;55636;51.108;13.622;2023-05-17T04:51:39;100837.09;;;6.50;57.82
68654;BME280;55636;51.108;13.622;2023-05-17T04:52:44;100844.22;;;6.57;57.88
68654;BME280;55636;51.108;13.622;2023-05-17T04:53:46;100846.09;;;6.64;57.73
68654;BME280;55636;51.108;13.622;2023-05-17T04:54:51;100847.97;;;6.70;57.81
68654;BME280;55636;51.108;13.622;2023-05-17T04:55:58;100846.84;;;6.78;57.67
68654;BME280;55636;51.108;13.622;2023-05-17T04:57:01;100855.25;;;6.83;57.60
68654;BME280;55636;51.108;13.622;2023-05-17T04:58:29;100843.38;;;6.89;57.49
68654;BME280;55636;51.108;13.622;2023-05-17T04:59:34;100851.75;;;6.94;57.43
68654;BME280;55636;51.108;13.622;2023-05-17T05:00:36;100856.38;;;7.00;57.34
68654;BME280;55636;51.108;13.622;2023-05-17T05:01:40;100852.72;;;7.06;57.30
68654;BME280;55636;51.108;13.622;2023-05-17T05:02:42;100858.38;;;7.12;57.07
68654;BME280;55636;51.108;13.622;2023-05-17T05:03:46;100857.53;;;7.18;56.97
68654;BME280;55636;51.108;13.622;2023-05-17T05:04:49;100867.81;;;7.22;56.92
68654;BME280;55636;51.108;13.622;2023-05-17T05:05:51;100875.16;;;7.29;56.87
68654;BME280;55636;51.108;13.622;2023-05-17T05:06:57;100863.28;;;7.35;56.75
68654;BME280;55636;51.108;13.622;2023-05-17T05:07:59;100871.69;;;7.40;56.72
68654;BME280;55636;51.108;13.622;2023-05-17T05:09:02;100873.50;;;7.46;56.70
68654;BME280;55636;51.108;13.622;2023-05-17T05:10:07;100866.28;;;7.52;56.63
68654;BME280;55636;51.108;13.622;2023-05-17T05:11:10;100874.69;;;7.57;56.46
68654;BME280;55636;51.108;13.622;2023-05-17T05:12:12;100868.25;;;7.63;56.42
68654;BME280;55636;51.108;13.622;2023-05-17T05:13:17;100871.16;;;7.68;56.34
68654;BME280;55636;51.108;13.622;2023-05-17T05:14:19;100864.50;;;7.76;56.21
68654;BME280;55636;51.108;13.622;2023-05-17T05:15:22;100865.53;;;7.82;56.11
68654;BME280;55636;51.108;13.622;2023-05-17T05:16:29;100863.50;;;7.89;56.08
68654;BME280;55636;51.108;13.622;2023-05-17T05:17:32;100859.03;;;7.95;55.93
68654;BME280;55636;51.108;13.622;2023-05-17T05:18:35;100860.81;;;8.01;55.88
68654;BME280;55636;51.108;13.622;2023-05-17T05:19:38;100868.78;;;8.09;55.82
68654;BME280;55636;51.108;13.622;2023-05-17T05:20:42;100862.31;;;8.15;55.74
68654;BME280;55636;51.108;13.622;2023-05-17T05:21:45;100861.41;;;8.21;55.59
68654;BME280;55636;51.108;13.622;2023-05-17T05:22:49;100859.41;;;8.29;55.59
68654;BME280;55636;51.108;13.622;2023-05-17T05:23:52;100857.41;;;8.36;55.44
68654;BME280;55636;51.108;13.622;2023-05-17T05:24:55;100859.22;;;8.42;55.29
68654;BME280;55636;51.108;13.622;2023-05-17T05:25:58;100854.69;;;8.48;55.05
68654;BME280;55636;51.108;13.622;2023-05-17T05:27:01;100860.31;;;8.53;55.10
68654;BME280;55636;51.108;13.622;2023-05-17T05:28:07;100858.56;;;8.59;55.06
68654;BME280;55636;51.108;13.622;2023-05-17T05:29:12;100858.69;;;8.64;54.99
68654;BME280;55636;51.108;13.622;2023-05-17T05:30:14;100860.28;;;8.71;54.69
68654;BME280;55636;51.108;13.622;2023-05-17T05:31:26;100853.84;;;8.78;54.81
68654;BME280;55636;51.108;13.622;2023-05-17T05:32:31;100856.72;;;8.83;54.67
68654;BME280;55636;51.108;13.622;2023-05-17T05:33:34;100848.59;;;8.88;54.63
68654;BME280;55636;51.108;13.622;2023-05-17T05:34:38;100852.31;;;8.94;54.75
68654;BME280;55636;51.108;13.622;2023-05-17T05:35:41;100860.69;;;8.99;54.51
68654;BME280;55636;51.108;13.622;2023-05-17T05:36:43;100860.81;;;9.04;54.59
68654;BME280;55636;51.108;13.622;2023-05-17T05:37:46;100856.28;;;9.10;54.45
68654;BME280;55636;51.108;13.622;2023-05-17T05:38:48;100866.56;;;9.14;54.45
68654;BME280;55636;51.108;13.622;2023-05-17T05:39:53;100865.63;;;9.20;54.47
68654;BME280;55636;51.108;13.622;2023-05-17T05:40:56;100876.78;;;9.26;54.35
68654;BME280;55636;51.108;13.622;2023-05-17T05:41:58;100869.25;;;9.33;54.43
68654;BME280;55636;51.108;13.622;2023-05-17T05:43:01;100873.78;;;9.39;54.28
68654;BME280;55636;51.108;13.622;2023-05-17T05:44:03;100874.75;;;9.45;54.27
68654;BME280;55636;51.108;13.622;2023-05-17T05:45:08;100869.94;;;9.52;54.22
68654;BME280;55636;51.108;13.622;2023-05-17T05:46:11;100874.50;;;9.58;54.05
68654;BME280;55636;51.108;13.622;2023-05-17T05:47:14;100880.75;;;9.65;54.05
68654;BME280;55636;51.108;13.622;2023-05-17T05:48:16;100873.16;;;9.73;54.07